sensor_id;sensor_type;location;lat;lon;timestamp;temperature;humidity
81202;DHT22;71068;47.662;-2.750;2024-03-07T00:00:12;10.40;80.40
81202;DHT22;71068;47.662;-2.750;2024-03-07T00:03:07;10.40;80.50
81202;DHT22;71068;47.662;-2.750;2024-03-07T00:05:54;10.30;80.50
81202;DHT22;71068;47.662;-2.750;2024-03-07T00:08:40;10.30;80.50
81202;DHT22;71068;47.662;-2.750;2024-03-07T00:11:28;10.30;80.70
81202;DHT22;71068;47.662;-2.750;2024-03-07T00:14:18;10.20;80.80
81202;DHT22;71068;47.662;-2.750;2024-03-07T00:17:05;10.20;80.90
81202;DHT22;71068;47.662;-2.750;2024-03-07T00:19:51;10.20;80.90
81202;DHT22;71068;47.662;-2.750;2024-03-07T00:22:38;10.10;80.80
81202;DHT22;71068;47.662;-2.750;2024-03-07T00:25:24;10.10;81.10
81202;DHT22;71068;47.662;-2.750;2024-03-07T00:28:12;10.10;81.10
81202;DHT22;71068;47.662;-2.750;2024-03-07T00:30:58;10.10;81.10
81202;DHT22;71068;47.662;-2.750;2024-03-07T00:33:45;10.10;81.10
81202;DHT22;71068;47.662;-2.750;2024-03-07T00:36:31;10.00;80.90
81202;DHT22;71068;47.662;-2.750;2024-03-07T00:39:20;10.00;80.90
81202;DHT22;71068;47.662;-2.750;2024-03-07T00:42:07;10.00;81.10
81202;DHT22;71068;47.662;-2.750;2024-03-07T00:44:56;10.00;80.90
81202;DHT22;71068;47.662;-2.750;2024-03-07T00:47:43;9.90;80.80
81202;DHT22;71068;47.662;-2.750;2024-03-07T00:50:31;10.00;80.70
81202;DHT22;71068;47.662;-2.750;2024-03-07T00:53:20;10.00;80.60
81202;DHT22;71068;47.662;-2.750;2024-03-07T00:56:08;10.00;80.70
81202;DHT22;71068;47.662;-2.750;2024-03-07T00:58:55;10.00;80.70
81202;DHT22;71068;47.662;-2.750;2024-03-07T01:01:42;9.90;80.60
81202;DHT22;71068;47.662;-2.750;2024-03-07T01:04:29;10.00;80.70
81202;DHT22;71068;47.662;-2.750;2024-03-07T01:07:19;10.00;80.50
81202;DHT22;71068;47.662;-2.750;2024-03-07T01:10:14;9.90;80.50
81202;DHT22;71068;47.662;-2.750;2024-03-07T01:13:02;9.90;80.50
81202;DHT22;71068;47.662;-2.750;2024-03-07T01:15:52;9.90;80.60
81202;DHT22;71068;47.662;-2.750;2024-03-07T01:18:38;9.80;80.60
81202;DHT22;71068;47.662;-2.750;2024-03-07T01:21:24;9.80;80.60
81202;DHT22;71068;47.662;-2.750;2024-03-07T01:24:18;9.80;80.70
81202;DHT22;71068;47.662;-2.750;2024-03-07T01:30:31;9.80;80.70
81202;DHT22;71068;47.662;-2.750;2024-03-07T01:33:21;9.80;80.60
81202;DHT22;71068;47.662;-2.750;2024-03-07T01:36:09;9.70;80.60
81202;DHT22;71068;47.662;-2.750;2024-03-07T01:38:55;9.70;80.90
81202;DHT22;71068;47.662;-2.750;2024-03-07T01:41:42;9.60;81.10
81202;DHT22;71068;47.662;-2.750;2024-03-07T01:44:28;9.50;81.40
81202;DHT22;71068;47.662;-2.750;2024-03-07T01:47:17;9.50;81.60
81202;DHT22;71068;47.662;-2.750;2024-03-07T01:50:04;9.50;81.30
81202;DHT22;71068;47.662;-2.750;2024-03-07T01:52:50;9.50;81.30
81202;DHT22;71068;47.662;-2.750;2024-03-07T01:55:38;9.50;81.30
81202;DHT22;71068;47.662;-2.750;2024-03-07T01:58:25;9.40;81.30
81202;DHT22;71068;47.662;-2.750;2024-03-07T02:01:11;9.40;81.40
81202;DHT22;71068;47.662;-2.750;2024-03-07T02:04:02;9.40;81.20
81202;DHT22;71068;47.662;-2.750;2024-03-07T02:06:48;9.40;81.10
81202;DHT22;71068;47.662;-2.750;2024-03-07T02:09:35;9.40;81.00
81202;DHT22;71068;47.662;-2.750;2024-03-07T02:12:21;9.30;80.90
81202;DHT22;71068;47.662;-2.750;2024-03-07T02:15:10;9.40;80.90
81202;DHT22;71068;47.662;-2.750;2024-03-07T02:17:56;9.40;80.70
81202;DHT22;71068;47.662;-2.750;2024-03-07T02:20:44;9.30;80.70
81202;DHT22;71068;47.662;-2.750;2024-03-07T02:23:32;9.40;80.70
81202;DHT22;71068;47.662;-2.750;2024-03-07T02:26:19;9.40;80.60
81202;DHT22;71068;47.662;-2.750;2024-03-07T02:29:05;9.20;80.40
81202;DHT22;71068;47.662;-2.750;2024-03-07T02:31:54;9.30;80.50
81202;DHT22;71068;47.662;-2.750;2024-03-07T02:34:40;9.20;80.60
81202;DHT22;71068;47.662;-2.750;2024-03-07T02:37:27;9.20;80.60
81202;DHT22;71068;47.662;-2.750;2024-03-07T02:40:14;9.20;80.40
81202;DHT22;71068;47.662;-2.750;2024-03-07T02:43:02;9.20;80.20
81202;DHT22;71068;47.662;-2.750;2024-03-07T02:45:52;9.10;80.60
81202;DHT22;71068;47.662;-2.750;2024-03-07T02:48:39;9.10;80.70
81202;DHT22;71068;47.662;-2.750;2024-03-07T02:51:25;9.10;80.80
81202;DHT22;71068;47.662;-2.750;2024-03-07T02:54:13;9.10;80.60
81202;DHT22;71068;47.662;-2.750;2024-03-07T02:57:01;9.10;80.80
81202;DHT22;71068;47.662;-2.750;2024-03-07T02:59:50;9.00;80.80
81202;DHT22;71068;47.662;-2.750;2024-03-07T03:02:38;9.10;80.70
81202;DHT22;71068;47.662;-2.750;2024-03-07T03:05:25;9.00;80.70
81202;DHT22;71068;47.662;-2.750;2024-03-07T03:08:11;9.00;80.70
81202;DHT22;71068;47.662;-2.750;2024-03-07T03:10:59;8.90;80.90
81202;DHT22;71068;47.662;-2.750;2024-03-07T03:13:46;8.90;81.10
81202;DHT22;71068;47.662;-2.750;2024-03-07T03:16:35;8.90;81.00
81202;DHT22;71068;47.662;-2.750;2024-03-07T03:19:22;8.90;80.80
81202;DHT22;71068;47.662;-2.750;2024-03-07T03:22:17;8.90;80.80
81202;DHT22;71068;47.662;-2.750;2024-03-07T03:25:05;8.90;80.80
81202;DHT22;71068;47.662;-2.750;2024-03-07T03:28:02;8.90;80.70
81202;DHT22;71068;47.662;-2.750;2024-03-07T03:30:50;8.90;80.70
81202;DHT22;71068;47.662;-2.750;2024-03-07T03:33:37;8.80;80.20
81202;DHT22;71068;47.662;-2.750;2024-03-07T03:36:27;8.80;80.10
81202;DHT22;71068;47.662;-2.750;2024-03-07T03:39:13;8.80;80.40
81202;DHT22;71068;47.662;-2.750;2024-03-07T03:41:59;8.90;80.30
81202;DHT22;71068;47.662;-2.750;2024-03-07T03:44:47;8.80;80.30
81202;DHT22;71068;47.662;-2.750;2024-03-07T03:47:35;8.80;80.00
81202;DHT22;71068;47.662;-2.750;2024-03-07T03:50:21;8.80;80.00
81202;DHT22;71068;47.662;-2.750;2024-03-07T03:53:11;8.80;80.00
81202;DHT22;71068;47.662;-2.750;2024-03-07T03:55:59;8.70;80.00
81202;DHT22;71068;47.662;-2.750;2024-03-07T03:58:45;8.80;79.90
81202;DHT22;71068;47.662;-2.750;2024-03-07T04:01:32;8.80;79.90
81202;DHT22;71068;47.662;-2.750;2024-03-07T04:04:20;8.70;79.70
81202;DHT22;71068;47.662;-2.750;2024-03-07T04:07:07;8.70;79.70
81202;DHT22;71068;47.662;-2.750;2024-03-07T04:09:54;8.80;79.60
81202;DHT22;71068;47.662;-2.750;2024-03-07T04:12:41;8.70;79.70
81202;DHT22;71068;47.662;-2.750;2024-03-07T04:15:27;8.80;79.80
81202;DHT22;71068;47.662;-2.750;2024-03-07T04:18:17;8.60;78.80
81202;DHT22;71068;47.662;-2.750;2024-03-07T04:21:04;8.60;79.40
81202;DHT22;71068;47.662;-2.750;2024-03-07T04:23:50;8.60;79.50
81202;DHT22;71068;47.662;-2.750;2024-03-07T04:26:38;8.60;79.20
81202;DHT22;71068;47.662;-2.750;2024-03-07T04:29:27;8.50;78.90
81202;DHT22;71068;47.662;-2.750;2024-03-07T04:32:14;8.60;79.30
81202;DHT22;71068;47.662;-2.750;2024-03-07T04:35:01;8.50;78.40
81202;DHT22;71068;47.662;-2.750;2024-03-07T04:37:53;8.50;78.60
81202;DHT22;71068;47.662;-2.750;2024-03-07T04:40:39;8.50;78.80
81202;DHT22;71068;47.662;-2.750;2024-03-07T04:43:26;8.50;78.60
81202;DHT22;71068;47.662;-2.750;2024-03-07T04:46:12;8.40;79.00
81202;DHT22;71068;47.662;-2.750;2024-03-07T04:48:59;8.50;78.90
81202;DHT22;71068;47.662;-2.750;2024-03-07T04:51:45;8.40;78.90
81202;DHT22;71068;47.662;-2.750;2024-03-07T04:54:32;8.40;78.90
81202;DHT22;71068;47.662;-2.750;2024-03-07T04:57:20;8.50;79.00
81202;DHT22;71068;47.662;-2.750;2024-03-07T05:00:10;8.50;78.90
81202;DHT22;71068;47.662;-2.750;2024-03-07T05:03:00;8.50;78.10
81202;DHT22;71068;47.662;-2.750;2024-03-07T05:05:47;8.60;78.50
81202;DHT22;71068;47.662;-2.750;2024-03-07T05:08:33;8.50;78.00
81202;DHT22;71068;47.662;-2.750;2024-03-07T05:11:20;8.60;78.50
81202;DHT22;71068;47.662;-2.750;2024-03-07T05:14:07;8.50;77.40
81202;DHT22;71068;47.662;-2.750;2024-03-07T05:16:53;8.50;78.20
81202;DHT22;71068;47.662;-2.750;2024-03-07T05:19:54;8.50;77.90
81202;DHT22;71068;47.662;-2.750;2024-03-07T05:22:40;8.40;77.80
81202;DHT22;71068;47.662;-2.750;2024-03-07T05:25:30;8.40;77.00
81202;DHT22;71068;47.662;-2.750;2024-03-07T05:28:18;8.30;77.90
81202;DHT22;71068;47.662;-2.750;2024-03-07T05:31:05;8.40;77.90
81202;DHT22;71068;47.662;-2.750;2024-03-07T05:33:51;8.30;78.00
81202;DHT22;71068;47.662;-2.750;2024-03-07T05:36:38;8.40;78.00
81202;DHT22;71068;47.662;-2.750;2024-03-07T05:39:31;8.30;77.60
81202;DHT22;71068;47.662;-2.750;2024-03-07T05:42:18;8.30;77.70
81202;DHT22;71068;47.662;-2.750;2024-03-07T05:45:06;8.30;77.60
81202;DHT22;71068;47.662;-2.750;2024-03-07T05:47:55;8.20;77.00
81202;DHT22;71068;47.662;-2.750;2024-03-07T05:50:42;8.20;77.20
81202;DHT22;71068;47.662;-2.750;2024-03-07T05:53:29;8.10;76.60
81202;DHT22;71068;47.662;-2.750;2024-03-07T05:56:17;8.10;77.30
81202;DHT22;71068;47.662;-2.750;2024-03-07T05:59:11;8.20;77.50
81202;DHT22;71068;47.662;-2.750;2024-03-07T06:01:57;8.10;76.50
81202;DHT22;71068;47.662;-2.750;2024-03-07T06:04:45;8.10;76.80
81202;DHT22;71068;47.662;-2.750;2024-03-07T06:07:31;8.10;76.90
81202;DHT22;71068;47.662;-2.750;2024-03-07T06:10:20;8.10;76.90
81202;DHT22;71068;47.662;-2.750;2024-03-07T06:13:15;8.00;76.50
81202;DHT22;71068;47.662;-2.750;2024-03-07T06:16:04;8.00;76.80
81202;DHT22;71068;47.662;-2.750;2024-03-07T06:18:53;8.00;76.50
81202;DHT22;71068;47.662;-2.750;2024-03-07T06:21:40;8.00;76.20
81202;DHT22;71068;47.662;-2.750;2024-03-07T06:24:27;8.00;76.20
81202;DHT22;71068;47.662;-2.750;2024-03-07T06:27:17;8.00;76.40
81202;DHT22;71068;47.662;-2.750;2024-03-07T06:30:15;8.00;76.10
81202;DHT22;71068;47.662;-2.750;2024-03-07T06:33:10;7.90;76.00
81202;DHT22;71068;47.662;-2.750;2024-03-07T06:35:57;8.00;76.50
81202;DHT22;71068;47.662;-2.750;2024-03-07T06:38:44;7.80;75.50
81202;DHT22;71068;47.662;-2.750;2024-03-07T06:41:31;8.00;75.70
81202;DHT22;71068;47.662;-2.750;2024-03-07T06:44:20;7.90;75.70
81202;DHT22;71068;47.662;-2.750;2024-03-07T06:47:10;7.90;75.60
81202;DHT22;71068;47.662;-2.750;2024-03-07T06:49:56;8.00;76.00
81202;DHT22;71068;47.662;-2.750;2024-03-07T06:52:42;7.90;75.50
81202;DHT22;71068;47.662;-2.750;2024-03-07T06:55:30;7.90;76.00
81202;DHT22;71068;47.662;-2.750;2024-03-07T06:58:16;7.90;75.50
81202;DHT22;71068;47.662;-2.750;2024-03-07T07:01:05;7.90;75.60
81202;DHT22;71068;47.662;-2.750;2024-03-07T07:03:55;7.90;75.40
81202;DHT22;71068;47.662;-2.750;2024-03-07T07:06:44;7.80;75.80
81202;DHT22;71068;47.662;-2.750;2024-03-07T07:09:30;7.90;76.00
81202;DHT22;71068;47.662;-2.750;2024-03-07T07:12:17;8.00;75.70
81202;DHT22;71068;47.662;-2.750;2024-03-07T07:15:05;7.90;75.40
81202;DHT22;71068;47.662;-2.750;2024-03-07T07:17:53;8.00;76.00
81202;DHT22;71068;47.662;-2.750;2024-03-07T07:20:39;8.00;75.70
81202;DHT22;71068;47.662;-2.750;2024-03-07T07:23:26;7.90;75.10
81202;DHT22;71068;47.662;-2.750;2024-03-07T07:26:13;7.90;75.80
81202;DHT22;71068;47.662;-2.750;2024-03-07T07:28:59;8.00;75.60
81202;DHT22;71068;47.662;-2.750;2024-03-07T07:31:45;7.90;75.50
81202;DHT22;71068;47.662;-2.750;2024-03-07T07:34:32;8.00;75.50
81202;DHT22;71068;47.662;-2.750;2024-03-07T07:37:18;7.90;75.30
81202;DHT22;71068;47.662;-2.750;2024-03-07T07:40:08;7.90;74.80
81202;DHT22;71068;47.662;-2.750;2024-03-07T07:43:00;7.90;74.90
81202;DHT22;71068;47.662;-2.750;2024-03-07T07:45:48;8.00;75.20
81202;DHT22;71068;47.662;-2.750;2024-03-07T07:48:36;8.20;75.40
81202;DHT22;71068;47.662;-2.750;2024-03-07T07:51:24;8.20;75.30
81202;DHT22;71068;47.662;-2.750;2024-03-07T07:54:11;8.30;75.00
81202;DHT22;71068;47.662;-2.750;2024-03-07T07:56:57;8.40;74.60
81202;DHT22;71068;47.662;-2.750;2024-03-07T07:59:43;8.40;73.80
81202;DHT22;71068;47.662;-2.750;2024-03-07T08:02:30;8.60;74.40
81202;DHT22;71068;47.662;-2.750;2024-03-07T08:05:21;8.60;73.90
81202;DHT22;71068;47.662;-2.750;2024-03-07T08:08:11;8.70;73.60
81202;DHT22;71068;47.662;-2.750;2024-03-07T08:10:59;8.80;71.80
81202;DHT22;71068;47.662;-2.750;2024-03-07T08:13:46;8.80;72.00
81202;DHT22;71068;47.662;-2.750;2024-03-07T08:16:36;8.90;72.10
81202;DHT22;71068;47.662;-2.750;2024-03-07T08:19:23;9.00;71.00
81202;DHT22;71068;47.662;-2.750;2024-03-07T08:22:12;9.20;73.00
81202;DHT22;71068;47.662;-2.750;2024-03-07T08:24:58;9.30;70.50
81202;DHT22;71068;47.662;-2.750;2024-03-07T08:27:48;9.40;70.20
81202;DHT22;71068;47.662;-2.750;2024-03-07T08:30:35;9.30;69.50
81202;DHT22;71068;47.662;-2.750;2024-03-07T08:33:33;9.40;70.20
81202;DHT22;71068;47.662;-2.750;2024-03-07T08:36:27;9.60;71.00
81202;DHT22;71068;47.662;-2.750;2024-03-07T08:39:14;9.70;70.20
81202;DHT22;71068;47.662;-2.750;2024-03-07T08:42:00;9.80;71.40
81202;DHT22;71068;47.662;-2.750;2024-03-07T08:44:46;9.90;68.90
81202;DHT22;71068;47.662;-2.750;2024-03-07T08:47:34;9.90;69.90
81202;DHT22;71068;47.662;-2.750;2024-03-07T08:50:25;10.10;71.00
81202;DHT22;71068;47.662;-2.750;2024-03-07T08:53:12;10.10;69.20
81202;DHT22;71068;47.662;-2.750;2024-03-07T08:55:59;10.10;67.10
81202;DHT22;71068;47.662;-2.750;2024-03-07T08:58:48;10.30;70.30
81202;DHT22;71068;47.662;-2.750;2024-03-07T09:01:36;10.30;68.00
81202;DHT22;71068;47.662;-2.750;2024-03-07T09:04:24;10.40;67.80
81202;DHT22;71068;47.662;-2.750;2024-03-07T09:07:10;10.50;69.00
81202;DHT22;71068;47.662;-2.750;2024-03-07T09:09:57;10.70;69.40
81202;DHT22;71068;47.662;-2.750;2024-03-07T09:12:49;10.60;66.00
81202;DHT22;71068;47.662;-2.750;2024-03-07T09:15:38;10.80;66.50
81202;DHT22;71068;47.662;-2.750;2024-03-07T09:18:25;11.10;68.90
81202;DHT22;71068;47.662;-2.750;2024-03-07T09:21:11;11.60;66.40
81202;DHT22;71068;47.662;-2.750;2024-03-07T09:23:57;11.80;65.00
81202;DHT22;71068;47.662;-2.750;2024-03-07T09:26:45;12.10;65.10
81202;DHT22;71068;47.662;-2.750;2024-03-07T09:29:32;12.20;64.10
81202;DHT22;71068;47.662;-2.750;2024-03-07T09:32:19;12.60;67.20
81202;DHT22;71068;47.662;-2.750;2024-03-07T09:35:09;12.70;64.90
81202;DHT22;71068;47.662;-2.750;2024-03-07T09:37:59;13.00;63.80
81202;DHT22;71068;47.662;-2.750;2024-03-07T09:40:47;13.30;64.60
81202;DHT22;71068;47.662;-2.750;2024-03-07T09:43:34;13.60;60.00
81202;DHT22;71068;47.662;-2.750;2024-03-07T09:46:22;13.80;62.10
81202;DHT22;71068;47.662;-2.750;2024-03-07T09:49:10;13.80;57.20
81202;DHT22;71068;47.662;-2.750;2024-03-07T09:51:58;14.00;55.90
81202;DHT22;71068;47.662;-2.750;2024-03-07T09:54:46;14.00;56.00
81202;DHT22;71068;47.662;-2.750;2024-03-07T09:57:34;13.90;53.60
81202;DHT22;71068;47.662;-2.750;2024-03-07T10:00:21;14.10;59.80
81202;DHT22;71068;47.662;-2.750;2024-03-07T10:03:13;14.20;56.90
81202;DHT22;71068;47.662;-2.750;2024-03-07T10:06:01;14.50;58.10
81202;DHT22;71068;47.662;-2.750;2024-03-07T10:08:50;14.30;54.80
81202;DHT22;71068;47.662;-2.750;2024-03-07T10:11:37;14.70;57.70
81202;DHT22;71068;47.662;-2.750;2024-03-07T10:14:26;14.90;56.90
81202;DHT22;71068;47.662;-2.750;2024-03-07T10:17:15;14.90;53.40
81202;DHT22;71068;47.662;-2.750;2024-03-07T10:20:01;15.00;53.10
81202;DHT22;71068;47.662;-2.750;2024-03-07T10:22:50;15.30;55.90
81202;DHT22;71068;47.662;-2.750;2024-03-07T10:25:36;15.30;53.10
81202;DHT22;71068;47.662;-2.750;2024-03-07T10:28:26;15.30;52.00
81202;DHT22;71068;47.662;-2.750;2024-03-07T10:31:28;15.10;51.20
81202;DHT22;71068;47.662;-2.750;2024-03-07T10:34:15;15.30;53.80
81202;DHT22;71068;47.662;-2.750;2024-03-07T10:37:02;15.30;49.70
81202;DHT22;71068;47.662;-2.750;2024-03-07T10:39:49;15.30;49.00
81202;DHT22;71068;47.662;-2.750;2024-03-07T10:42:36;15.60;48.40
81202;DHT22;71068;47.662;-2.750;2024-03-07T10:45:30;15.70;53.10
81202;DHT22;71068;47.662;-2.750;2024-03-07T10:48:25;16.00;50.90
81202;DHT22;71068;47.662;-2.750;2024-03-07T10:51:21;16.00;51.50
81202;DHT22;71068;47.662;-2.750;2024-03-07T10:54:48;15.60;48.30
81202;DHT22;71068;47.662;-2.750;2024-03-07T10:58:04;15.80;50.40
81202;DHT22;71068;47.662;-2.750;2024-03-07T11:01:02;15.90;48.30
81202;DHT22;71068;47.662;-2.750;2024-03-07T11:03:51;16.20;48.70
81202;DHT22;71068;47.662;-2.750;2024-03-07T11:06:38;16.30;47.20
81202;DHT22;71068;47.662;-2.750;2024-03-07T11:09:26;16.50;48.60
81202;DHT22;71068;47.662;-2.750;2024-03-07T11:12:21;16.80;49.20
81202;DHT22;71068;47.662;-2.750;2024-03-07T11:15:33;16.60;42.80
81202;DHT22;71068;47.662;-2.750;2024-03-07T11:19:17;16.60;43.00
81202;DHT22;71068;47.662;-2.750;2024-03-07T11:22:35;16.40;42.50
81202;DHT22;71068;47.662;-2.750;2024-03-07T11:25:23;16.60;45.20
81202;DHT22;71068;47.662;-2.750;2024-03-07T11:28:16;16.80;45.60
81202;DHT22;71068;47.662;-2.750;2024-03-07T11:31:26;16.70;45.30
81202;DHT22;71068;47.662;-2.750;2024-03-07T11:34:17;16.80;43.90
81202;DHT22;71068;47.662;-2.750;2024-03-07T11:37:10;16.70;44.60
81202;DHT22;71068;47.662;-2.750;2024-03-07T11:40:05;16.70;42.60
81202;DHT22;71068;47.662;-2.750;2024-03-07T11:43:04;16.70;44.30
81202;DHT22;71068;47.662;-2.750;2024-03-07T11:45:53;16.90;45.00
81202;DHT22;71068;47.662;-2.750;2024-03-07T11:48:40;17.20;45.10
81202;DHT22;71068;47.662;-2.750;2024-03-07T11:51:29;17.20;43.60
81202;DHT22;71068;47.662;-2.750;2024-03-07T11:54:21;17.50;44.10
81202;DHT22;71068;47.662;-2.750;2024-03-07T11:57:15;17.50;44.50
81202;DHT22;71068;47.662;-2.750;2024-03-07T12:00:11;17.50;44.70
81202;DHT22;71068;47.662;-2.750;2024-03-07T12:02:58;17.90;45.20
81202;DHT22;71068;47.662;-2.750;2024-03-07T12:05:46;18.00;41.30
81202;DHT22;71068;47.662;-2.750;2024-03-07T12:08:33;18.00;43.20
81202;DHT22;71068;47.662;-2.750;2024-03-07T12:11:19;18.30;43.90
81202;DHT22;71068;47.662;-2.750;2024-03-07T12:14:07;18.20;43.50
81202;DHT22;71068;47.662;-2.750;2024-03-07T12:16:53;18.50;41.80
81202;DHT22;71068;47.662;-2.750;2024-03-07T12:19:53;18.80;43.00
81202;DHT22;71068;47.662;-2.750;2024-03-07T12:22:39;18.60;38.00
81202;DHT22;71068;47.662;-2.750;2024-03-07T12:25:32;18.70;41.70
81202;DHT22;71068;47.662;-2.750;2024-03-07T12:28:33;18.60;38.10
81202;DHT22;71068;47.662;-2.750;2024-03-07T12:31:21;18.70;42.40
81202;DHT22;71068;47.662;-2.750;2024-03-07T12:34:19;18.80;42.00
81202;DHT22;71068;47.662;-2.750;2024-03-07T12:37:07;19.00;37.50
81202;DHT22;71068;47.662;-2.750;2024-03-07T12:39:55;19.20;40.90
81202;DHT22;71068;47.662;-2.750;2024-03-07T12:42:51;19.40;37.80
81202;DHT22;71068;47.662;-2.750;2024-03-07T12:45:50;19.00;38.30
81202;DHT22;71068;47.662;-2.750;2024-03-07T12:48:37;19.20;40.40
81202;DHT22;71068;47.662;-2.750;2024-03-07T12:51:28;19.40;41.20
81202;DHT22;71068;47.662;-2.750;2024-03-07T12:54:17;19.80;40.30
81202;DHT22;71068;47.662;-2.750;2024-03-07T12:57:04;19.60;37.90
81202;DHT22;71068;47.662;-2.750;2024-03-07T12:59:51;19.40;38.50
81202;DHT22;71068;47.662;-2.750;2024-03-07T13:02:38;19.40;40.90
81202;DHT22;71068;47.662;-2.750;2024-03-07T13:05:24;19.40;42.20
81202;DHT22;71068;47.662;-2.750;2024-03-07T13:08:11;19.60;40.40
81202;DHT22;71068;47.662;-2.750;2024-03-07T13:10:58;19.80;40.90
81202;DHT22;71068;47.662;-2.750;2024-03-07T13:13:48;19.40;40.80
81202;DHT22;71068;47.662;-2.750;2024-03-07T13:16:36;19.20;40.10
81202;DHT22;71068;47.662;-2.750;2024-03-07T13:19:24;18.80;40.80
81202;DHT22;71068;47.662;-2.750;2024-03-07T13:22:12;18.60;42.00
81202;DHT22;71068;47.662;-2.750;2024-03-07T13:24:59;18.30;42.50
81202;DHT22;71068;47.662;-2.750;2024-03-07T13:30:47;18.00;42.00
81202;DHT22;71068;47.662;-2.750;2024-03-07T13:33:45;17.80;42.90
81202;DHT22;71068;47.662;-2.750;2024-03-07T13:36:32;17.70;41.40
81202;DHT22;71068;47.662;-2.750;2024-03-07T13:39:19;17.70;42.00
81202;DHT22;71068;47.662;-2.750;2024-03-07T13:42:07;17.40;41.90
81202;DHT22;71068;47.662;-2.750;2024-03-07T13:45:08;17.50;42.50
81202;DHT22;71068;47.662;-2.750;2024-03-07T13:47:59;17.70;42.50
81202;DHT22;71068;47.662;-2.750;2024-03-07T13:50:46;17.90;42.90
81202;DHT22;71068;47.662;-2.750;2024-03-07T13:53:36;18.40;40.40
81202;DHT22;71068;47.662;-2.750;2024-03-07T13:56:42;18.70;42.30
81202;DHT22;71068;47.662;-2.750;2024-03-07T13:59:57;19.00;40.70
81202;DHT22;71068;47.662;-2.750;2024-03-07T14:06:18;19.40;36.40
81202;DHT22;71068;47.662;-2.750;2024-03-07T14:16:57;20.10;39.00
81202;DHT22;71068;47.662;-2.750;2024-03-07T14:23:13;19.90;37.80
81202;DHT22;71068;47.662;-2.750;2024-03-07T14:29:47;20.20;36.60
81202;DHT22;71068;47.662;-2.750;2024-03-07T14:32:38;20.60;37.40
81202;DHT22;71068;47.662;-2.750;2024-03-07T14:35:35;20.70;35.90
81202;DHT22;71068;47.662;-2.750;2024-03-07T14:38:43;20.70;38.70
81202;DHT22;71068;47.662;-2.750;2024-03-07T14:42:01;21.00;37.70
81202;DHT22;71068;47.662;-2.750;2024-03-07T14:44:50;21.20;38.10
81202;DHT22;71068;47.662;-2.750;2024-03-07T14:47:36;21.30;38.50
81202;DHT22;71068;47.662;-2.750;2024-03-07T14:50:24;21.30;38.20
81202;DHT22;71068;47.662;-2.750;2024-03-07T14:53:15;21.20;37.80
81202;DHT22;71068;47.662;-2.750;2024-03-07T14:56:07;21.20;37.70
81202;DHT22;71068;47.662;-2.750;2024-03-07T14:58:53;21.00;38.10
81202;DHT22;71068;47.662;-2.750;2024-03-07T15:01:46;20.90;38.70
81202;DHT22;71068;47.662;-2.750;2024-03-07T15:04:39;20.40;38.10
81202;DHT22;71068;47.662;-2.750;2024-03-07T15:07:27;20.10;38.00
81202;DHT22;71068;47.662;-2.750;2024-03-07T15:10:23;19.70;38.70
81202;DHT22;71068;47.662;-2.750;2024-03-07T15:13:15;19.50;39.00
81202;DHT22;71068;47.662;-2.750;2024-03-07T15:16:03;19.20;39.90
81202;DHT22;71068;47.662;-2.750;2024-03-07T15:18:53;19.40;40.20
81202;DHT22;71068;47.662;-2.750;2024-03-07T15:21:39;19.50;38.90
81202;DHT22;71068;47.662;-2.750;2024-03-07T15:24:25;19.50;39.10
81202;DHT22;71068;47.662;-2.750;2024-03-07T15:27:26;19.50;37.50
81202;DHT22;71068;47.662;-2.750;2024-03-07T15:30:18;19.60;39.80
81202;DHT22;71068;47.662;-2.750;2024-03-07T15:33:07;19.50;38.40
81202;DHT22;71068;47.662;-2.750;2024-03-07T15:35:53;19.70;40.20
81202;DHT22;71068;47.662;-2.750;2024-03-07T15:38:40;19.90;39.20
81202;DHT22;71068;47.662;-2.750;2024-03-07T15:41:31;19.80;38.40
81202;DHT22;71068;47.662;-2.750;2024-03-07T15:44:19;19.80;39.70
81202;DHT22;71068;47.662;-2.750;2024-03-07T15:47:09;19.80;39.60
81202;DHT22;71068;47.662;-2.750;2024-03-07T15:49:56;19.60;39.80
81202;DHT22;71068;47.662;-2.750;2024-03-07T15:52:47;19.70;40.10
81202;DHT22;71068;47.662;-2.750;2024-03-07T15:55:35;19.80;40.50
81202;DHT22;71068;47.662;-2.750;2024-03-07T15:58:26;19.80;39.30
81202;DHT22;71068;47.662;-2.750;2024-03-07T16:01:18;19.80;39.20
81202;DHT22;71068;47.662;-2.750;2024-03-07T16:04:05;19.80;39.50
81202;DHT22;71068;47.662;-2.750;2024-03-07T16:06:53;19.90;40.20
81202;DHT22;71068;47.662;-2.750;2024-03-07T16:09:41;19.90;40.40
81202;DHT22;71068;47.662;-2.750;2024-03-07T16:12:27;20.10;40.90
81202;DHT22;71068;47.662;-2.750;2024-03-07T16:15:14;20.00;40.50
81202;DHT22;71068;47.662;-2.750;2024-03-07T16:18:01;19.90;40.20
81202;DHT22;71068;47.662;-2.750;2024-03-07T16:20:50;19.60;39.10
81202;DHT22;71068;47.662;-2.750;2024-03-07T16:23:42;19.30;40.50
81202;DHT22;71068;47.662;-2.750;2024-03-07T16:26:35;19.30;40.70
81202;DHT22;71068;47.662;-2.750;2024-03-07T16:29:22;19.30;41.30
81202;DHT22;71068;47.662;-2.750;2024-03-07T16:32:08;19.30;41.10
81202;DHT22;71068;47.662;-2.750;2024-03-07T16:34:58;19.10;39.60
81202;DHT22;71068;47.662;-2.750;2024-03-07T16:37:51;19.10;41.00
81202;DHT22;71068;47.662;-2.750;2024-03-07T16:40:46;19.00;40.50
81202;DHT22;71068;47.662;-2.750;2024-03-07T16:43:36;18.80;40.30
81202;DHT22;71068;47.662;-2.750;2024-03-07T16:46:23;18.50;39.70
81202;DHT22;71068;47.662;-2.750;2024-03-07T16:49:21;18.30;40.60
81202;DHT22;71068;47.662;-2.750;2024-03-07T16:52:07;18.30;41.90
81202;DHT22;71068;47.662;-2.750;2024-03-07T16:54:57;18.10;40.20
81202;DHT22;71068;47.662;-2.750;2024-03-07T16:57:55;18.00;41.10
81202;DHT22;71068;47.662;-2.750;2024-03-07T17:00:41;17.80;42.10
81202;DHT22;71068;47.662;-2.750;2024-03-07T17:03:38;17.50;41.80
81202;DHT22;71068;47.662;-2.750;2024-03-07T17:06:24;17.30;42.40
81202;DHT22;71068;47.662;-2.750;2024-03-07T17:09:11;17.20;41.90
81202;DHT22;71068;47.662;-2.750;2024-03-07T17:11:58;17.00;43.00
81202;DHT22;71068;47.662;-2.750;2024-03-07T17:14:48;16.70;43.20
81202;DHT22;71068;47.662;-2.750;2024-03-07T17:17:39;16.60;43.30
81202;DHT22;71068;47.662;-2.750;2024-03-07T17:20:30;16.50;43.90
81202;DHT22;71068;47.662;-2.750;2024-03-07T17:23:17;16.40;44.10
81202;DHT22;71068;47.662;-2.750;2024-03-07T17:26:04;16.30;43.60
81202;DHT22;71068;47.662;-2.750;2024-03-07T17:28:52;16.20;44.80
81202;DHT22;71068;47.662;-2.750;2024-03-07T17:31:39;16.20;44.70
81202;DHT22;71068;47.662;-2.750;2024-03-07T17:34:26;16.10;45.00
81202;DHT22;71068;47.662;-2.750;2024-03-07T17:37:14;16.00;45.20
81202;DHT22;71068;47.662;-2.750;2024-03-07T17:40:09;15.80;45.60
81202;DHT22;71068;47.662;-2.750;2024-03-07T17:43:05;15.70;45.90
81202;DHT22;71068;47.662;-2.750;2024-03-07T17:45:54;15.50;46.20
81202;DHT22;71068;47.662;-2.750;2024-03-07T17:48:56;15.50;46.50
81202;DHT22;71068;47.662;-2.750;2024-03-07T17:51:43;15.40;46.30
81202;DHT22;71068;47.662;-2.750;2024-03-07T17:54:29;15.30;46.50
81202;DHT22;71068;47.662;-2.750;2024-03-07T17:57:17;15.20;46.80
81202;DHT22;71068;47.662;-2.750;2024-03-07T18:00:05;15.10;47.30
81202;DHT22;71068;47.662;-2.750;2024-03-07T18:03:03;15.00;47.60
81202;DHT22;71068;47.662;-2.750;2024-03-07T18:05:54;14.80;47.60